Housum, Pennsylvania
Current Conditions -  °F | °C
As of 11:53 AM on Saturday 22 Nov 2014 (Local Time) from KHGR Reporting Station
Broken Clouds Broken Clouds  
Wind Chill: 34°   Ceiling: 8000
Heat Index: 39°   Visibility: 10mi
Dew Point: 10°   Wind: 7mph
Humidity: 30%   Direction: 200°SSW
Pressure: 30.36"   Gusts: NA
Location:  39.9438°N, 77.6827°W
Report Text: KHGR 221653Z 20006KT 10SM BKN080 04/M12 A3036 RMK AO2 SLP299 T00391122
Loading
Personal Weather Stations






























Interactive Weather Map New forecast layout! Learn more

10-Day Weather Forecast

Advertisements
Track Severe Weather on mobile